Home > Products > Valid Products > MTR

000
SAUS44 KMAF 250754
MTR6R6
METAR K6R6 250753Z AUTO 07003KT 17/M01 A2995 RMK AO1 SLP107
T01721011





000
SAUS44 KMAF 250753
MTRGDP
METAR KGDP 250751Z AUTO 04009KT 10SM CLR 15/M09 A3008 RMK AO2 SLP114
T01501089





000
SAUS44 KMAF 250654
MTR6R6
METAR K6R6 250653Z AUTO 00000KT 18/M02 A2995 RMK AO1 SLP107
T01831022





000
SAUS44 KMAF 250653
MTRGDP
METAR KGDP 250651Z AUTO 02009KT 10SM CLR 16/M09 A3009 RMK AO2 SLP120
T01561089 402560128





000
SAUS44 KMAF 250553
MTRGDP
METAR KGDP 250551Z AUTO 03009KT 10SM CLR 16/M09 A3009 RMK AO2 SLP123
T01561089 10244 20150 58000





000
SAUS44 KMAF 250453
MTRGDP
METAR KGDP 250451Z AUTO 03011KT 10SM CLR 16/M09 A3010 RMK AO2 SLP126
T01611094





000
SAUS44 KMAF 250353
MTRGDP
METAR KGDP 250351Z AUTO 27010KT 10SM CLR 19/M13 A3010 RMK AO2 SLP125
T01941133





000
SAUS44 KMAF 250253
MTRGDP
METAR KGDP 250251Z AUTO 27012KT 10SM CLR 19/M13 A3009 RMK AO2 SLP128
T01891128 53009





000
SAUS44 KMAF 250154
MTR6R6
METAR K6R6 250153Z AUTO 03007KT 26/M04 A2991 RMK AO1 SLP092
T02611044





000
SAUS44 KMAF 250153
MTRGDP
METAR KGDP 250151Z AUTO 25017KT 9SM CLR 20/M13 A3007 RMK AO2 SLP120
T02001128





000
SAUS44 KMAF 250054
MTR6R6
METAR K6R6 250053Z AUTO 04009KT 31/M07 A2989 RMK AO1 SLP088
T03061067





000
SAUS44 KMAF 250053
MTRGDP
METAR KGDP 250051Z AUTO 23010KT 9SM CLR 23/M13 A3006 RMK AO2 SLP112
T02281128





000
SAUS44 KMAF 242354
MTR6R6
METAR K6R6 242353Z AUTO 01008G17KT 33/M08 A2988 RMK AO1 SLP084
T03281083 10350 20317 55007





000
SAUS44 KMAF 242353
MTRGDP
METAR KGDP 242351Z AUTO 24010KT 9SM CLR 24/M12 A3006 RMK AO2 SLP109
T02391117 10256 20206 56010





000
SAUS44 KMAF 242254
MTR6R6
METAR K6R6 242253Z AUTO 03010G18KT 34/M10 A2988 RMK AO1 SLP080
T03391100





000
SAUS44 KMAF 242253
MTRGDP
METAR KGDP 242251Z AUTO 24015G20KT 9SM CLR 25/M11 A3006 RMK AO2
SLP110 T02501111





000
SAUS44 KMAF 242154
MTR6R6
METAR K6R6 242153Z AUTO 36015G19KT 35/M09 A2988 RMK AO1 SLP080
T03501094





000
SAUS44 KMAF 242153
MTRGDP
METAR KGDP 242151Z AUTO 24012KT 9SM CLR 26/M10 A3008 RMK AO2 SLP110
T02561100





000
SAUS44 KMAF 242054
MTR6R6
METAR K6R6 242053Z AUTO 31007G17KT 250V330 34/M09 A2991 RMK AO1
SLP089 T03391094 57018





000
SAUS44 KMAF 242053
MTRGDP
METAR KGDP 242051Z AUTO 22014G20KT 9SM CLR 25/M11 A3010 RMK AO2
SLP113 T02501106 58017





000
SAUS44 KMAF 241954
MTR6R6
METAR K6R6 241953Z AUTO 34015G20KT 34/M10 A2992 RMK AO1 SLP095
T03391100





000
SAUS44 KMAF 241953
MTRGDP
METAR KGDP 241951Z AUTO 25015G22KT 9SM CLR 24/M10 A3012 RMK AO2
SLP124 T02441100





000
SAUS44 KMAF 241854
MTR6R6
METAR K6R6 241853Z AUTO 34016G20KT 33/M09 A2995 RMK AO1 SLP103
T03331094





000
SAUS44 KMAF 241853
MTRGDP
METAR KGDP 241851Z AUTO VRB03KT 9SM CLR 23/M09 A3014 RMK AO2 SLP134
T02281094





000
SAUS44 KMAF 241754
MTR6R6
METAR K6R6 241753Z AUTO 01013G19KT 32/M06 A2997 RMK AO1 SLP109
T03221061 10322 20178 50007





000
SAUS44 KMAF 241753
MTRGDP
METAR KGDP 241751Z AUTO VRB06KT 9SM CLR 21/M11 A3015 RMK AO2 SLP139
T02111106 10228 20139 50007





000
SAUS44 KMAF 241654
MTR6R6
METAR K6R6 241653Z AUTO 36015G21KT 31/M06 A2998 RMK AO1 SLP112
T03111056





000
SAUS44 KMAF 241653
MTRGDP
METAR KGDP 241651Z AUTO 22005KT 9SM CLR 21/M08 A3016 RMK AO2 SLP141
T02061078





000
SAUS44 KMAF 241554
MTR6R6
METAR K6R6 241553Z AUTO 33018G24KT 31/M06 A2996 RMK AO1 SLP106
T03061061





000
SAUS44 KMAF 241553
MTRGDP
METAR KGDP 241551Z AUTO 16006KT 9SM CLR 18/M07 A3015 RMK AO2 SLP140
T01781072





000
SAUS44 KMAF 241454
MTR6R6
METAR K6R6 241453Z AUTO 34014G17KT 29/M04 A2994 RMK AO1 SLP100
T02941039 51030





000
SAUS44 KMAF 241453
MTRGDP
METAR KGDP 241451Z AUTO 16003KT 9SM CLR 16/M08 A3013 RMK AO2 SLP136
T01561083 51024





000
SAUS44 KMAF 241354
MTR6R6
METAR K6R6 241353Z AUTO 31006KT 26/06 A2992 RMK AO1 SLP094 T02560061





000
SAUS44 KMAF 241353
MTRGDP
METAR KGDP 241351Z AUTO 19004KT 9SM CLR 15/M09 A3011 RMK AO2 SLP129
T01501094





000
SAUS44 KMAF 241254
MTR6R6
METAR K6R6 241253Z AUTO 30006KT 18/15 A2989 RMK AO1 SLP088 T01830150





000
SAUS44 KMAF 241253
MTRGDP
METAR KGDP 241251Z AUTO 29004KT 9SM CLR 14/M10 A3008 RMK AO2 SLP118
T01441100





000
SAUS44 KMAF 241154
MTR6R6
METAR K6R6 241153Z AUTO 36008KT 18/14 A2985 RMK AO1 SLP071 T01780139
10228 20172 51028





000
SAUS44 KMAF 241153
MTRGDP
METAR KGDP 241151Z AUTO 26003KT 10SM CLR 14/M10 A3004 RMK AO2 SLP104
T01441100 10183 20128 51037





000
SAUS44 KMAF 241054
MTR6R6
METAR K6R6 241053Z AUTO 29005KT 18/14 A2981 RMK AO1 SLP057 T01830139





000
SAUS44 KMAF 241053
MTRGDP
METAR KGDP 241051Z AUTO 19011KT 10SM CLR 13/M08 A3001 RMK AO2 SLP090
T01331083





000
SAUS44 KMAF 240955 COR
MTR6R6
METAR K6R6 240953Z AUTO 35008KT 21/14 A2980 RMK AO1 SLP051 T02060144





000
SAUS44 KMAF 240953
MTRGDP
METAR KGDP 240951Z AUTO 27020G27KT 10SM CLR 17/M12 A2997 RMK AO2 PK
WND 28040/0852 SLP072 T01671117





000
SAUS44 KMAF 240855 COR
MTRGDP
METAR KGDP 240851Z AUTO 26032G46KT 10SM CLR 18/M12 A2992 RMK AO2 PK
WND 29046/0849 SLP051 T01781117 53005





000
SAUS44 KMAF 240854
MTR6R6
METAR K6R6 240853Z AUTO 01006KT 21/14 A2976 RMK AO1 SLP037 T02110144
53010





000
SAUS44 KMAF 240854 COR
MTRGDP
METAR KGDP 240851Z AUTO 26032G46KT 10SM CLR 18/M12 A2992 RMK AO2 PK
WND 29046/0849 SLP051 T01781117 53005





000
SAUS44 KMAF 240853
MTRGDP
METAR KGDP 240851Z AUTO 26032G46KT 10SM CLR 18/M12 A2992 RMK AO2 PK
WND 29046/0849 SLP051 T01781117 53005





000
SAUS44 KMAF 240754
MTR6R6
METAR K6R6 240753Z AUTO 35010KT 22/14 A2975 RMK AO1 PRESRR SLP033
T02170144





000
SAUS44 KMAF 240753
MTRGDP
METAR KGDP 240751Z AUTO 26032G45KT 10SM CLR 17/M08 A2990 RMK AO2 PK
WND 25045/0743 SLP044 T01721078





000
SAUS44 KMAF 240654 COR
MTRGDP
METAR KGDP 240651Z AUTO 26034G41KT 10SM CLR 18/M07 A2990 RMK AO2 PK
WND 26044/0610 SLP045 T01781067 402610156





000
SAUS44 KMAF 240654
MTR6R6
METAR K6R6 240653Z AUTO 35006KT 22/13 A2973 RMK AO1 SLP027 T02220133





000
SAUS44 KMAF 240653 COR
MTRGDP
METAR KGDP 240651Z AUTO 26034G41KT 10SM CLR 18/M07 A2990 RMK AO2 PK
WND 26044/0610 SLP045 T01781067 402610156





000
SAUS44 KMAF 240652
MTRGDP
METAR KGDP 240651Z AUTO 26034G41KT 10SM CLR 18/M07 A2990 RMK AO2 PK
WND 26044/0610 SLP045 T01781067 402610156





000
SAUS44 KMAF 240554 COR
MTRGDP
METAR KGDP 240551Z AUTO 26030G37KT 10SM CLR 18/M06 A2990 RMK AO2 PK
WND 26038/0503 SLP045 T01831056 10244 20178 53013





000
SAUS44 KMAF 240554
MTR6R6
METAR K6R6 240553Z AUTO 02007KT 23/13 A2972 RMK AO1 SLP026 T02280133
10328 20228 403720189 50000





000
SAUS44 KMAF 240553
MTRGDP
METAR KGDP 240551Z AUTO 26030G37KT 10SM CLR 18/M06 A2990 RMK AO2 PK
WND 26038/0503 SLP045 T01831056 10244 20178 53013





000
SAUS44 KMAF 240553 COR
MTRGDP
METAR KGDP 240551Z AUTO 26030G37KT 10SM CLR 18/M06 A2990 RMK AO2 PK
WND 26038/0503 SLP045 T01831056 10244 20178 53013





000
SAUS44 KMAF 240454
MTR6R6
METAR K6R6 240453Z AUTO 05006KT 24/13 A2973 RMK AO1 SLP029 T02440133





000
SAUS44 KMAF 240453
MTRGDP
METAR KGDP 240451Z AUTO 26030G36KT 10SM CLR 19/M06 A2989 RMK AO2 PK
WND 25050/0412 SLP045 T01891061





000
SAUS44 KMAF 240354
MTR6R6
METAR K6R6 240353Z AUTO 04008KT 26/13 A2973 RMK AO1 SLP030 T02560133





000
SAUS44 KMAF 240353
MTRGDP
METAR KGDP 240351Z AUTO 25034G43KT 9SM CLR 21/M08 A2985 RMK AO2 PK
WND 25043/0351 SLP033 T02061078





000
SAUS44 KMAF 240255 COR
MTRGDP
METAR KGDP 240251Z AUTO 25028G37KT 9SM CLR 21/M08 A2985 RMK AO2 PK
WND 25044/0211 SLP039 T02061083 53012





000
SAUS44 KMAF 240254 COR
MTRGDP
METAR KGDP 240251Z AUTO 25028G37KT 9SM CLR 21/M08 A2985 RMK AO2 PK
WND 25044/0211 SLP039 T02061083 53012





000
SAUS44 KMAF 240254
MTR6R6
METAR K6R6 240253Z AUTO 11003KT 27/13 A2972 RMK AO1 SLP028 T02670128
53019





000
SAUS44 KMAF 240253
MTRGDP
METAR KGDP 240251Z AUTO 25028G37KT 9SM CLR 21/M08 A2985 RMK AO2 PK
WND 25044/0211 SLP039 T02061083 53012





000
SAUS44 KMAF 240154
MTR6R6
METAR K6R6 240153Z AUTO 13014G18KT 28/14 A2970 RMK AO1 SLP022
T02780139





000
SAUS44 KMAF 240153
MTRGDP
METAR KGDP 240151Z AUTO 25035G42KT 9SM CLR 22/M09 A2982 RMK AO2 PK
WND 26042/0151 SLP027 T02171089





000
SAUS44 KMAF 240054
MTR6R6
METAR K6R6 240053Z AUTO 13013G24KT 29/14 A2968 RMK AO1 PK WND
12029/0038 SLP016 T02890144





000
SAUS44 KMAF 240053
MTRGDP
METAR KGDP 240051Z AUTO 24028G38KT 9SM CLR 23/M09 A2982 RMK AO2 PK
WND 25045/0020 SLP021 T02331094





000
SAUS44 KMAF 232354 COR
MTRGDP
METAR KGDP 232351Z AUTO 24029G47KT 9SM CLR 24/M09 A2981 RMK AO2 PK
WND 25049/2327 SLP017 T02441094 10261 20239 56020





000
SAUS44 KMAF 232354
MTR6R6
METAR K6R6 232353Z AUTO 13015G21KT 33/14 A2967 RMK AO1 SLP008
T03280144 10372 20311 56010





000
SAUS44 KMAF 232353
MTRGDP
METAR KGDP 232351Z AUTO 24029G47KT 9SM CLR 24/M09 A2981 RMK AO2 PK
WND 25049/2327 SLP017 T02441094 10261 20239 56020





000
SAUS44 KMAF 232259 COR
MTR6R6
METAR K6R6 232253Z AUTO 13018G24KT 33/12 A2967 RMK AO1 PK WND
11027/2157 SLP009 T03330122





000
SAUS44 KMAF 232254
MTR6R6
METAR K6R6 232253Z AUTO 13018G24KT 33/12 A2967 RMK AO1 PK WND
11027/2157 SLP009 T03330122





000
SAUS44 KMAF 232252
MTRGDP
METAR KGDP 232251Z AUTO 24029G42KT 9SM CLR 26/M08 A2983 RMK AO2 PK
WND 25043/2239 SLP021 T02561083





000
SAUS44 KMAF 232154
MTR6R6
METAR K6R6 232153Z AUTO 12021G26KT 34/14 A2968 RMK AO1 PK WND
11028/2136 SLP010 T03440144





000
SAUS44 KMAF 232152
MTRGDP
METAR KGDP 232151Z AUTO 23020G43KT 9SM CLR 26/M07 A2986 RMK AO2 PK
WND 25044/2128 SLP031 T02561067





000
SAUS44 KMAF 232054
MTR6R6
METAR K6R6 232053Z AUTO 12019G26KT 37/13 A2970 RMK AO1 PK WND
12026/2051 SLP014 T03670128 56036





000
SAUS44 KMAF 232053
MTRGDP
METAR KGDP 232051Z AUTO 25032G36KT 9SM CLR 26/M06 A2988 RMK AO2 PK
WND 24044/2028 SLP036 T02561056 56017





000
SAUS44 KMAF 231954
MTR6R6
METAR K6R6 231953Z AUTO 14010G16KT 36/12 A2973 RMK AO1 SLP025
T03610122





000
SAUS44 KMAF 231953
MTRGDP
METAR KGDP 231951Z AUTO 24029G37KT 9SM CLR 26/M04 A2990 RMK AO2 PK
WND 25040/1924 SLP043 T02611039





000
SAUS44 KMAF 231854
MTR6R6
METAR K6R6 231853Z AUTO 13009G14KT 35/13 A2977 RMK AO1 SLP039
T03500128





000
SAUS44 KMAF 231852
MTRGDP
METAR KGDP 231851Z AUTO 24027G40KT 9SM CLR 25/M04 A2992 RMK AO2 PK
WND 25041/1828 SLP049 T02501044





000
SAUS44 KMAF 231754
MTR6R6
METAR K6R6 231753Z AUTO 12005KT 32/13 A2981 RMK AO1 SLP054 T03220133
10328 20189 58018





000
SAUS44 KMAF 231754 COR
MTRGDP
METAR KGDP 231751Z AUTO 24029G35KT 10SM CLR 25/M02 A2994 RMK AO2 PK
WND 24035/1749 SLP060 T02501022 10250 20156 58011





000
SAUS44 KMAF 231753 COR
MTRGDP
METAR KGDP 231751Z AUTO 24029G35KT 10SM CLR 25/M02 A2994 RMK AO2 PK
WND 24035/1749 SLP060 T02501022 10250 20156 58011





000
SAUS44 KMAF 231753
MTRGDP
METAR KGDP 231751Z AUTO 24029G35KT 10SM CLR 25/M02 A2994 RMK AO2 PK
WND 24035/1749 SLP060 T02501022 10250 20156 58011





000
SAUS44 KMAF 231655
MTR6R6
METAR K6R6 231653Z AUTO 14007KT 29/14 A2984 RMK AO1 SLP065 T02890139





000
SAUS44 KMAF 231653
MTRGDP
METAR KGDP 231651Z AUTO 25024G28KT 9SM CLR 23/M02 A2997 RMK AO2 PK
WND 25030/1640 SLP074 T02281022





000
SAUS44 KMAF 231554
MTR6R6
METAR K6R6 231553Z AUTO VRB03KT 26/14 A2986 RMK AO1 SLP075 T02610139





000
SAUS44 KMAF 231553
MTRGDP
METAR KGDP 231551Z AUTO 24020G26KT 9SM CLR 21/M02 A2998 RMK AO2 PK
WND 25026/1550 SLP082 T02061017





000
SAUS44 KMAF 231454
MTR6R6
METAR K6R6 231453Z AUTO 11005KT 25/14 A2987 RMK AO1 SLP076 T02500139
50004





000
SAUS44 KMAF 231453
MTRGDP
METAR KGDP 231451Z AUTO 23013KT 9SM CLR 17/05 A2998 RMK AO2 SLP087
T01720050 51012





000
SAUS44 KMAF 231354
MTR6R6
METAR K6R6 231353Z AUTO 13006KT 23/13 A2987 RMK AO1 SLP078 T02280133





000
SAUS44 KMAF 231353
MTRGDP
METAR KGDP 231351Z AUTO 23011KT 9SM CLR 17/06 A2997 RMK AO2 SLP082
T01670061





000
SAUS44 KMAF 231254
MTR6R6
METAR K6R6 231253Z AUTO 06004KT 19/12 A2986 RMK AO1 SLP076 T01890122





000
SAUS44 KMAF 231253
MTRGDP
METAR KGDP 231251Z AUTO 24013KT 9SM CLR 16/07 A2996 RMK AO2 SLP075
T01610067





000
SAUS44 KMAF 231154
MTR6R6
METAR K6R6 231153Z AUTO 03004KT 19/12 A2985 RMK AO1 SLP074 T01890117
10267 20189 56002





000
SAUS44 KMAF 231153
MTRGDP
METAR KGDP 231151Z AUTO 23012KT 10SM CLR 17/06 A2994 RMK AO2 SLP064
T01720061 10194 20167 55005





000
SAUS44 KMAF 231054
MTR6R6
METAR K6R6 231053Z AUTO 00000KT 21/12 A2986 RMK AO1 SLP073 T02060117





000
SAUS44 KMAF 231053
MTRGDP
METAR KGDP 231051Z AUTO 24010KT 10SM CLR 17/06 A2993 RMK AO2 SLP056
T01720056





000
SAUS44 KMAF 230954
MTR6R6
METAR K6R6 230953Z AUTO 09008KT 22/11 A2985 RMK AO1 SLP069 T02170111





000
SAUS44 KMAF 230952
MTRGDP
METAR KGDP 230951Z AUTO 21011KT 10SM CLR 18/06 A2994 RMK AO2 SLP058
T01780056





000
SAUS44 KMAF 230854
MTR6R6
METAR K6R6 230853Z AUTO 10010KT 23/11 A2986 RMK AO1 SLP072 T02330111
58010





000
SAUS44 KMAF 230853
MTRGDP
METAR KGDP 230851Z AUTO 20008KT 10SM SCT100 18/06 A2996 RMK AO2
SLP060 T01830061 58012





000
SAUS44 KMAF 230754
MTR6R6
METAR K6R6 230753Z AUTO 10012KT 24/11 A2988 RMK AO1 SLP078 T02440111





000
SAUS44 KMAF 230752
MTRGDP
METAR KGDP 230751Z AUTO 24014KT 10SM FEW100 18/05 A2999 RMK AO2
SLP077 T01830050





000
SAUS44 KMAF 230654
MTR6R6
METAR K6R6 230653Z AUTO 12014G19KT 26/11 A2989 RMK AO1 SLP080
T02610111





000
SAUS44 KMAF 230653
MTRGDP
METAR KGDP 230651Z AUTO 17011G18KT 10SM FEW090 SCT120 19/05 A2999
RMK AO2 SLP080 T01940050 402720128





000
SAUS44 KMAF 230554
MTR6R6
METAR K6R6 230553Z AUTO 12010KT 27/11 A2989 RMK AO1 SLP082 T02670106
10328 20256 403440189 58003





000
SAUS44 KMAF 230552
MTRGDP
METAR KGDP 230551Z AUTO 04013G20KT 10SM CLR 18/06 A3000 RMK AO2 PK
WND 04027/0521 SLP084 T01780056 10233 20178 56001





000
SAUS44 KMAF 230454
MTR6R6
METAR K6R6 230453Z AUTO 13012KT 27/11 A2990 RMK AO1 SLP086 T02720106





000
SAUS44 KMAF 230453
MTRGDP
METAR KGDP 230451Z AUTO 05020KT 10SM BKN110 18/06 A3000 RMK AO2 PK
WND 06033/0425 SLP088 T01830056





000
SAUS44 KMAF 230354
MTRGDP
METAR KGDP 230351Z AUTO 05024KT 10SM SCT120 18/06 A2999 RMK AO2 PK
WND 06029/0334 SLP088 T01830056





000
SAUS44 KMAF 230354
MTR6R6
METAR K6R6 230353Z AUTO 13010KT 27/09 A2990 RMK AO1 SLP087 T02720089





000
SAUS44 KMAF 230254
MTR6R6
METAR K6R6 230253Z AUTO 12009KT 28/08 A2990 RMK AO1 SLP087 T02830078
53007





000
SAUS44 KMAF 230253
MTRGDP
METAR KGDP 230251Z AUTO 06022KT 10SM CLR 18/06 A3000 RMK AO2 PK WND
07027/0223 SLP094 T01830056 55005





000
SAUS44 KMAF 230154
MTR6R6
METAR K6R6 230153Z AUTO 10009KT 29/06 A2989 RMK AO1 SLP085 T02890061





000
SAUS44 KMAF 230153
MTRGDP
METAR KGDP 230151Z AUTO 09019KT 10SM CLR 20/04 A3000 RMK AO2 PK WND
10031/0112 SLP094 T02000044





000
SAUS44 KMAF 230054
MTR6R6
METAR K6R6 230053Z AUTO 11010KT 31/06 A2988 RMK AO1 SLP082 T03110061





000
SAUS44 KMAF 230053
MTRGDP
METAR KGDP 230051Z AUTO 10014KT 9SM CLR 22/04 A3001 RMK AO2 SLP096
T02220044





000
SAUS44 KMAF 222354
MTR6R6
METAR K6R6 222353Z AUTO 12012KT 32/07 A2988 RMK AO1 SLP081 T03170067
10344 20289 56024





000
SAUS44 KMAF 222353
MTRGDP
METAR KGDP 222351Z AUTO 11014KT 9SM FEW100 23/04 A3002 RMK AO2 PK
WND 10028/2306 SLP098 T02330039 10272 20217 56026





000
SAUS44 KMAF 222254
MTR6R6
METAR K6R6 222253Z AUTO 12011KT 32/07 A2989 RMK AO1 SLP084 T03170072





000
SAUS44 KMAF 222253
MTRGDP
METAR KGDP 222251Z AUTO 11017G21KT 9SM FEW100 26/04 A3002 RMK AO2
SLP094 T02560039





000
SAUS44 KMAF 222154
MTR6R6
METAR K6R6 222153Z AUTO 08009KT 34/08 A2992 RMK AO1 SLP093 T03390078





000
SAUS44 KMAF 222153
MTRGDP
METAR KGDP 222151Z AUTO 11012KT 9SM FEW120 25/04 A3007 RMK AO2
SLP108 T02500044





000
SAUS44 KMAF 222054
MTR6R6
METAR K6R6 222053Z AUTO 14009G19KT 34/11 A2995 RMK AO1 SLP105
T03390106 56031





000
SAUS44 KMAF 222053
MTRGDP
METAR KGDP 222051Z AUTO 17010G17KT 10SM BKN085 27/05 A3011 RMK AO2
SLP120 T02720050 56028





000
SAUS44 KMAF 221954
MTR6R6
METAR K6R6 221953Z AUTO 08009G16KT 33/13 A2998 RMK AO1 SLP116
T03280133





000
SAUS44 KMAF 221953
MTRGDP
METAR KGDP 221951Z AUTO 10004KT 9SM FEW070 24/06 A3014 RMK AO2
SLP133 T02390061





000
SAUS44 KMAF 221854
MTR6R6
METAR K6R6 221853Z AUTO 11008KT 32/13 A3002 RMK AO1 SLP128 T03220133





000
SAUS44 KMAF 221853
MTRGDP
METAR KGDP 221851Z AUTO 07010G20KT 9SM CLR 23/09 A3017 RMK AO2
SLP143 T02280089





000
SAUS44 KMAF 221754
MTR6R6
METAR K6R6 221753Z AUTO 11011KT 29/16 A3005 RMK AO1 SLP140 T02940156
10300 20189 58013





000
SAUS44 KMAF 221753
MTRGDP
METAR KGDP 221751Z AUTO 11011G20KT 050V140 9SM CLR 22/11 A3021 RMK
AO2 SLP157 T02220111 10222 20128 58004





000
SAUS44 KMAF 221654
MTR6R6
METAR K6R6 221653Z AUTO 09010KT 27/17 A3008 RMK AO1 SLP151 T02720167





000
SAUS44 KMAF 221653
MTRGDP
METAR KGDP 221651Z AUTO 08014KT 9SM CLR 20/11 A3022 RMK AO2 SLP165
T02000106





000
SAUS44 KMAF 221554
MTR6R6
METAR K6R6 221553Z AUTO 09007KT 26/16 A3009 RMK AO1 SLP156 T02610161





000
SAUS44 KMAF 221553
MTRGDP
METAR KGDP 221551Z AUTO 06020KT 8SM CLR 19/11 A3022 RMK AO2 SLP165
T01890111





000
SAUS44 KMAF 221454
MTR6R6
METAR K6R6 221453Z AUTO 09005KT 24/17 A3009 RMK AO1 SLP156 T02440172
51009





000
SAUS44 KMAF 221453
MTRGDP
METAR KGDP 221451Z AUTO 05020KT 7SM CLR 17/12 A3022 RMK AO2 PK WND
05030/1418 SLP171 T01670117 53011





000
SAUS44 KMAF 221354
MTR6R6
METAR K6R6 221353Z AUTO 04003KT 22/17 A3009 RMK AO1 SLP155 T02220172





000
SAUS44 KMAF 221353
MTRGDP
METAR KGDP 221351Z AUTO 06027KT 8SM CLR 14/10 A3020 RMK AO2 PK WND
05033/1304 SLP167 T01440100





000
SAUS44 KMAF 221254
MTR6R6
METAR K6R6 221253Z AUTO 36004KT 20/17 A3008 RMK AO1 SLP152 T02000167





000
SAUS44 KMAF 221253
MTRGDP
METAR KGDP 221251Z AUTO 05029KT 8SM CLR 13/09 A3019 RMK AO2 PK WND
05035/1239 SLP161 T01280089





000
SAUS44 KMAF 221154
MTR6R6
METAR K6R6 221153Z AUTO 04004KT 19/16 A3006 RMK AO1 SLP144 T01890161
10222 20189 55001





000
SAUS44 KMAF 221153
MTRGDP
METAR KGDP 221151Z AUTO 05026KT 10SM CLR 13/08 A3018 RMK AO2 PK WND
05036/1125 SLP154 T01330083 10183 20133 56003





000
SAUS44 KMAF 221054
MTR6R6
METAR K6R6 221053Z AUTO 10005KT 21/17 A3005 RMK AO1 SLP140 T02110172





000
SAUS44 KMAF 221053
MTRGDP
METAR KGDP 221051Z AUTO 05030G36KT 10SM CLR 14/08 A3018 RMK AO2 PK
WND 05037/1003 SLP152 T01390083





000
SAUS44 KMAF 220954
MTR6R6
METAR K6R6 220953Z AUTO 03004KT 20/16 A3005 RMK AO1 SLP141 T02000161





000
SAUS44 KMAF 220953
MTRGDP
METAR KGDP 220951Z AUTO 05031G38KT 10SM CLR 14/08 A3018 RMK AO2 PK
WND 06038/0944 SLP152 T01440078





000
SAUS44 KMAF 220854
MTR6R6
METAR K6R6 220853Z AUTO 12003KT 21/17 A3006 RMK AO1 SLP143 T02110167
50012





000
SAUS44 KMAF 220853
MTRGDP
METAR KGDP 220851Z AUTO 04030G36KT 10SM CLR 14/07 A3019 RMK AO2 PK
WND 05038/0823 SLP161 T01440067 58006





    US Dept of Commerce
    National Oceanic and Atmospheric Administration
    National Weather Service
    1325 East West Highway
    Silver Spring, MD 20910
    Page Author: NWS Internet Services Team
Disclaimer
Information Quality
Credits
Glossary
Privacy Policy
Freedom of Information Act (FOIA)
About Us
Career Opportunities